createdAt,value
2023-04-08T00:00:49.412Z,7.63
2023-04-08T00:03:15.958Z,7.58
2023-04-08T00:05:42.459Z,7.51
2023-04-08T00:08:08.789Z,7.49
2023-04-08T00:10:35.324Z,7.44
2023-04-08T00:13:01.806Z,7.44
2023-04-08T00:15:28.269Z,7.43
2023-04-08T00:17:54.802Z,7.43
2023-04-08T00:20:24.145Z,7.41
2023-04-08T00:22:50.939Z,7.35
2023-04-08T00:25:17.384Z,7.30
2023-04-08T00:27:43.917Z,7.30
2023-04-08T00:30:11.553Z,7.36
2023-04-08T00:32:38.148Z,7.40
2023-04-08T00:35:05.263Z,7.39
2023-04-08T00:37:31.815Z,7.39
2023-04-08T00:39:58.405Z,7.36
2023-04-08T00:42:24.934Z,7.34
2023-04-08T00:44:51.564Z,7.31
2023-04-08T00:47:18.538Z,7.28
2023-04-08T00:49:45.348Z,7.28
2023-04-08T00:52:11.801Z,7.24
2023-04-08T00:54:38.566Z,7.20
2023-04-08T00:57:06.269Z,7.12
2023-04-08T00:59:33.919Z,7.13
2023-04-08T01:02:16.854Z,7.18
2023-04-08T01:04:50.046Z,7.18
2023-04-08T01:07:27.696Z,7.10
2023-04-08T01:10:02.011Z,7.11
2023-04-08T01:12:33.021Z,7.11
2023-04-08T01:15:04.848Z,7.13
2023-04-08T01:17:32.302Z,7.14
2023-04-08T01:20:01.800Z,7.08
2023-04-08T01:22:43.761Z,7.01
2023-04-08T01:25:23.678Z,6.92
2023-04-08T01:27:50.909Z,6.91
2023-04-08T01:30:21.942Z,6.90
2023-04-08T01:32:49.494Z,6.83
2023-04-08T01:35:16.510Z,6.80
2023-04-08T01:37:44.993Z,6.77
2023-04-08T01:40:12.306Z,6.76
2023-04-08T01:42:39.295Z,6.79
2023-04-08T01:45:06.909Z,6.81
2023-04-08T01:47:34.954Z,6.81
2023-04-08T01:50:03.235Z,6.78
2023-04-08T01:52:30.785Z,6.75
2023-04-08T01:54:57.291Z,6.70
2023-04-08T01:57:27.013Z,6.72
2023-04-08T01:59:58.500Z,6.75
2023-04-08T02:02:27.092Z,6.79
2023-04-08T02:04:56.074Z,6.81
2023-04-08T02:07:22.530Z,6.81
2023-04-08T02:09:49.893Z,6.82
2023-04-08T02:12:16.478Z,6.85
2023-04-08T02:14:43.446Z,6.85
2023-04-08T02:17:21.370Z,6.88
2023-04-08T02:19:56.321Z,6.87
2023-04-08T02:22:44.765Z,6.88
2023-04-08T02:25:14.900Z,6.88
2023-04-08T02:27:43.545Z,6.89
2023-04-08T02:30:11.992Z,6.90
2023-04-08T02:32:39.127Z,6.87
2023-04-08T02:35:05.901Z,6.85
2023-04-08T02:37:32.750Z,6.84
2023-04-08T02:39:59.455Z,6.80
2023-04-08T02:42:26.368Z,6.77
2023-04-08T02:44:53.015Z,6.70
2023-04-08T02:47:19.392Z,6.68
2023-04-08T02:49:45.905Z,6.67
2023-04-08T02:52:12.406Z,6.65
2023-04-08T02:54:38.766Z,6.57
2023-04-08T02:57:05.338Z,6.58
2023-04-08T02:59:31.695Z,6.58
2023-04-08T03:01:58.151Z,6.59
2023-04-08T03:04:24.586Z,6.60
2023-04-08T03:06:50.999Z,6.61
2023-04-08T03:09:17.443Z,6.62
2023-04-08T03:11:44.910Z,6.56
2023-04-08T03:14:11.559Z,6.52
2023-04-08T03:16:37.934Z,6.53
2023-04-08T03:19:04.380Z,6.53
2023-04-08T03:21:31.832Z,6.54
2023-04-08T03:23:58.304Z,6.56
2023-04-08T03:26:27.066Z,6.56
2023-04-08T03:28:53.503Z,6.54
2023-04-08T03:31:21.255Z,6.53
2023-04-08T03:33:47.878Z,6.46
2023-04-08T03:36:14.262Z,6.41
2023-04-08T03:38:40.758Z,6.40
2023-04-08T03:41:07.157Z,6.32
2023-04-08T03:43:33.925Z,6.35
2023-04-08T03:46:01.188Z,6.28
2023-04-08T03:48:28.228Z,6.25
2023-04-08T03:50:54.581Z,6.28
2023-04-08T03:53:21.030Z,6.26
2023-04-08T03:55:50.568Z,6.22
2023-04-08T03:58:16.885Z,6.22
2023-04-08T04:00:43.273Z,6.19
2023-04-08T04:03:13.046Z,6.19
2023-04-08T04:05:40.257Z,6.16
2023-04-08T04:08:07.165Z,6.15
2023-04-08T04:10:33.653Z,6.11
2023-04-08T04:13:00.516Z,6.05
2023-04-08T04:15:27.127Z,6.02
2023-04-08T04:17:53.657Z,5.97
2023-04-08T04:20:21.641Z,5.93
2023-04-08T04:22:47.964Z,5.89
2023-04-08T04:25:14.468Z,5.87
2023-04-08T04:27:40.853Z,5.86
2023-04-08T04:30:09.436Z,5.83
2023-04-08T04:32:35.851Z,5.81
2023-04-08T04:35:02.362Z,5.81
2023-04-08T04:37:28.783Z,5.79
2023-04-08T04:39:55.317Z,5.73
2023-04-08T04:42:21.750Z,5.71
2023-04-08T04:44:48.130Z,5.66
2023-04-08T04:47:16.076Z,5.62
2023-04-08T04:49:42.826Z,5.56
2023-04-08T04:52:09.214Z,5.55
2023-04-08T04:54:38.753Z,5.48
2023-04-08T04:57:05.427Z,5.45
2023-04-08T04:59:31.903Z,5.41
2023-04-08T05:01:58.466Z,5.36
2023-04-08T05:04:26.272Z,5.34
2023-04-08T05:06:52.754Z,5.32
2023-04-08T05:09:19.148Z,5.27
2023-04-08T05:11:45.559Z,5.17
2023-04-08T05:14:12.380Z,5.17
2023-04-08T05:16:39.266Z,5.06
2023-04-08T05:19:05.853Z,5.01
2023-04-08T05:21:32.667Z,4.99
2023-04-08T05:23:59.146Z,4.95
2023-04-08T05:26:26.243Z,4.91
2023-04-08T05:28:52.836Z,4.89
2023-04-08T05:31:20.131Z,4.87
2023-04-08T05:33:47.545Z,4.86
2023-04-08T05:36:14.596Z,4.84
2023-04-08T05:38:43.173Z,4.80
2023-04-08T05:41:09.664Z,4.78
2023-04-08T05:43:36.807Z,4.78
2023-04-08T05:46:08.006Z,4.73
2023-04-08T05:48:34.439Z,4.75
2023-04-08T05:51:01.088Z,4.94
2023-04-08T05:53:27.589Z,5.21
2023-04-08T05:55:54.028Z,5.93
2023-04-08T05:58:20.675Z,6.68
2023-04-08T06:00:47.161Z,6.63
2023-04-08T06:03:13.936Z,6.11
2023-04-08T06:05:40.605Z,5.71
2023-04-08T06:08:07.068Z,5.51
2023-04-08T06:10:33.497Z,5.38
2023-04-08T06:12:59.941Z,5.36
2023-04-08T06:15:26.490Z,5.74
2023-04-08T06:17:52.994Z,6.82
2023-04-08T06:20:19.352Z,7.65
2023-04-08T06:22:45.773Z,7.41
2023-04-08T06:25:12.324Z,6.81
2023-04-08T06:27:38.748Z,6.34
2023-04-08T06:30:05.735Z,6.17
2023-04-08T06:32:32.235Z,6.09
2023-04-08T06:34:59.818Z,6.03
2023-04-08T06:37:26.269Z,5.94
2023-04-08T06:39:52.720Z,6.00
2023-04-08T06:42:19.852Z,6.01
2023-04-08T06:44:46.240Z,6.03
2023-04-08T06:47:12.615Z,6.14
2023-04-08T06:49:39.091Z,6.16
2023-04-08T06:52:06.874Z,6.21
2023-04-08T06:54:33.257Z,6.25
2023-04-08T06:56:59.658Z,6.28
2023-04-08T06:59:26.081Z,6.40
2023-04-08T07:01:52.589Z,6.55
2023-04-08T07:04:19.114Z,6.63
2023-04-08T07:06:45.820Z,6.74
2023-04-08T07:09:12.235Z,6.76
2023-04-08T07:11:38.566Z,6.82
2023-04-08T07:14:04.958Z,6.91
2023-04-08T07:16:31.358Z,7.06
2023-04-08T07:18:58.005Z,7.17
2023-04-08T07:21:24.412Z,7.26
2023-04-08T07:23:50.820Z,7.28
2023-04-08T07:26:17.287Z,7.45
2023-04-08T07:28:43.723Z,7.55
2023-04-08T07:31:11.946Z,7.69
2023-04-08T07:33:38.367Z,7.76
2023-04-08T07:36:05.190Z,7.86
2023-04-08T07:38:31.783Z,7.95
2023-04-08T07:40:58.227Z,8.04
2023-04-08T07:43:24.557Z,8.15
2023-04-08T07:45:51.279Z,8.21
2023-04-08T07:48:17.827Z,8.31
2023-04-08T07:51:09.488Z,8.43
2023-04-08T07:53:33.563Z,8.62
2023-04-08T07:56:00.707Z,8.72
2023-04-08T07:58:27.435Z,8.82
2023-04-08T08:00:54.192Z,8.84
2023-04-08T08:03:20.790Z,8.95
2023-04-08T08:05:47.249Z,9.16
2023-04-08T08:08:13.630Z,9.29
2023-04-08T08:10:40.632Z,9.41
2023-04-08T08:13:08.036Z,9.59
2023-04-08T08:15:34.475Z,9.70
2023-04-08T08:18:01.149Z,9.74
2023-04-08T08:20:28.030Z,9.94
2023-04-08T08:22:57.521Z,10.10
2023-04-08T08:25:26.075Z,10.26
2023-04-08T08:27:52.943Z,10.42
2023-04-08T08:30:21.225Z,10.52
2023-04-08T08:32:48.381Z,10.64
2023-04-08T08:35:14.872Z,10.73
2023-04-08T08:37:41.745Z,10.93
2023-04-08T08:40:09.019Z,11.03
2023-04-08T08:42:35.839Z,11.23
2023-04-08T08:45:03.528Z,11.36
2023-04-08T08:47:31.015Z,11.48
2023-04-08T08:49:57.771Z,11.61
2023-04-08T08:52:24.335Z,11.61
2023-04-08T08:54:58.981Z,11.69
2023-04-08T08:57:25.740Z,11.86
2023-04-08T08:59:52.688Z,11.82
2023-04-08T09:02:30.044Z,12.05
2023-04-08T09:05:01.605Z,12.31
2023-04-08T09:07:30.537Z,12.35
2023-04-08T09:09:58.579Z,12.49
2023-04-08T09:12:28.157Z,12.69
2023-04-08T09:15:06.056Z,12.97
2023-04-08T09:17:37.748Z,13.13
2023-04-08T09:20:12.245Z,13.23
2023-04-08T09:22:53.963Z,13.32
2023-04-08T09:25:27.829Z,13.32
2023-04-08T09:27:54.730Z,13.38
2023-04-08T09:30:23.183Z,13.61
2023-04-08T09:32:57.910Z,13.53
2023-04-08T09:35:25.620Z,13.78
2023-04-08T09:37:52.158Z,14.11
2023-04-08T09:40:18.674Z,14.06
2023-04-08T09:42:52.313Z,14.02
2023-04-08T09:45:19.155Z,14.06
2023-04-08T09:48:01.363Z,14.37
2023-04-08T09:50:31.981Z,14.49
2023-04-08T09:53:15.260Z,14.50
2023-04-08T09:55:44.101Z,14.68
2023-04-08T09:58:21.539Z,14.75
2023-04-08T10:00:51.754Z,14.99
2023-04-08T10:03:33.400Z,15.07
2023-04-08T10:06:03.369Z,15.10
2023-04-08T10:08:33.091Z,15.28
2023-04-08T10:10:59.848Z,15.57
2023-04-08T10:13:28.449Z,15.74
2023-04-08T10:16:17.722Z,15.82
2023-04-08T10:18:44.539Z,15.72
2023-04-08T10:21:51.453Z,15.74
2023-04-08T10:24:18.938Z,15.82
2023-04-08T10:26:45.761Z,15.76
2023-04-08T10:29:18.239Z,15.99
2023-04-08T10:31:45.369Z,16.42
2023-04-08T10:34:22.847Z,16.44
2023-04-08T10:36:49.821Z,16.50
2023-04-08T10:39:16.942Z,16.68
2023-04-08T10:41:48.068Z,17.08
2023-04-08T10:44:19.102Z,16.96
2023-04-08T10:46:46.823Z,17.20
2023-04-08T10:49:14.137Z,17.00
2023-04-08T10:51:42.077Z,16.98
2023-04-08T10:54:09.675Z,17.18
2023-04-08T10:56:43.725Z,17.11
2023-04-08T10:59:10.980Z,17.19
2023-04-08T11:01:41.905Z,17.38
2023-04-08T11:04:15.663Z,17.41
2023-04-08T11:06:43.932Z,17.44
2023-04-08T11:09:11.087Z,17.64
2023-04-08T11:11:37.871Z,17.81
2023-04-08T11:14:05.818Z,17.75
2023-04-08T11:16:32.694Z,17.79
2023-04-08T11:18:59.648Z,18.05
2023-04-08T11:21:29.638Z,18.43
2023-04-08T11:23:56.391Z,18.48
2023-04-08T11:26:23.598Z,18.38
2023-04-08T11:28:51.681Z,18.37
2023-04-08T11:31:20.650Z,18.33
2023-04-08T11:33:52.722Z,18.07
2023-04-08T11:36:19.362Z,18.14
2023-04-08T11:38:47.846Z,18.21
2023-04-08T11:41:14.615Z,18.25
2023-04-08T11:43:51.713Z,18.20
2023-04-08T11:46:20.432Z,18.11
2023-04-08T11:48:59.978Z,18.16
2023-04-08T11:51:27.966Z,18.63
2023-04-08T11:53:56.388Z,18.63
2023-04-08T11:56:23.958Z,18.81
2023-04-08T11:58:51.812Z,18.77
2023-04-08T12:01:18.745Z,19.03
2023-04-08T12:04:02.169Z,19.08
2023-04-08T12:06:29.351Z,19.28
2023-04-08T12:08:56.703Z,19.50
2023-04-08T12:11:23.568Z,19.39
2023-04-08T12:13:51.158Z,19.23
2023-04-08T12:16:18.879Z,19.62
2023-04-08T12:18:45.620Z,19.71
2023-04-08T12:21:12.335Z,19.72
2023-04-08T12:23:38.787Z,19.59
2023-04-08T12:26:05.457Z,19.43
2023-04-08T12:28:31.844Z,19.44
2023-04-08T12:30:58.284Z,19.56
2023-04-08T12:33:24.718Z,19.67
2023-04-08T12:35:51.372Z,19.13
2023-04-08T12:38:17.805Z,18.96
2023-04-08T12:40:44.337Z,18.80
2023-04-08T12:43:10.758Z,18.69
2023-04-08T12:45:37.228Z,18.31
2023-04-08T12:48:03.865Z,17.89
2023-04-08T12:50:30.812Z,17.87
2023-04-08T12:52:57.220Z,17.95
2023-04-08T12:55:25.065Z,18.06
2023-04-08T12:57:52.557Z,18.08
2023-04-08T13:00:19.565Z,17.86
2023-04-08T13:02:46.524Z,17.97
2023-04-08T13:05:13.041Z,17.75
2023-04-08T13:07:39.542Z,18.10
2023-04-08T13:10:07.114Z,18.61
2023-04-08T13:12:33.522Z,18.69
2023-04-08T13:15:01.250Z,18.43
2023-04-08T13:17:28.200Z,18.20
2023-04-08T13:19:54.671Z,18.15
2023-04-08T13:22:21.049Z,18.17
2023-04-08T13:24:47.873Z,18.27
2023-04-08T13:27:14.229Z,18.61
2023-04-08T13:29:40.742Z,19.35
2023-04-08T13:32:07.211Z,19.68
2023-04-08T13:34:33.638Z,19.60
2023-04-08T13:37:00.154Z,19.38
2023-04-08T13:39:26.448Z,19.43
2023-04-08T13:41:52.928Z,19.20
2023-04-08T13:44:19.443Z,18.90
2023-04-08T13:46:46.157Z,18.79
2023-04-08T13:49:12.594Z,18.84
2023-04-08T13:51:39.156Z,18.67
2023-04-08T13:54:05.915Z,18.48
2023-04-08T13:56:32.348Z,18.35
2023-04-08T13:58:58.948Z,18.43
2023-04-08T14:01:25.871Z,18.81
2023-04-08T14:03:52.439Z,19.17
2023-04-08T14:06:18.792Z,19.10
2023-04-08T14:08:45.123Z,18.86
2023-04-08T14:11:11.505Z,18.58
2023-04-08T14:13:37.988Z,18.65
2023-04-08T14:16:04.604Z,18.39
2023-04-08T14:18:31.187Z,18.13
2023-04-08T14:20:57.753Z,18.48
2023-04-08T14:23:24.196Z,18.89
2023-04-08T14:25:50.829Z,19.02
2023-04-08T14:28:17.358Z,19.20
2023-04-08T14:30:43.762Z,19.21
2023-04-08T14:33:10.725Z,18.90
2023-04-08T14:35:37.808Z,18.65
2023-04-08T14:38:04.249Z,18.44
2023-04-08T14:40:30.647Z,18.43
2023-04-08T14:42:57.092Z,18.40
2023-04-08T14:45:23.618Z,18.33
2023-04-08T14:47:50.078Z,18.49
2023-04-08T14:50:16.834Z,18.61
2023-04-08T14:52:45.329Z,18.62
2023-04-08T14:55:12.049Z,19.19
2023-04-08T14:57:38.440Z,19.26
2023-04-08T15:00:05.614Z,19.26
2023-04-08T15:02:32.191Z,19.29
2023-04-08T15:04:58.713Z,19.23
2023-04-08T15:07:25.417Z,19.70
2023-04-08T15:09:52.003Z,19.68
2023-04-08T15:12:18.464Z,19.54
2023-04-08T15:14:45.060Z,19.45
2023-04-08T15:17:11.456Z,19.45
2023-04-08T15:19:37.778Z,19.45
2023-04-08T15:22:04.194Z,19.42
2023-04-08T15:24:30.562Z,19.38
2023-04-08T15:26:57.205Z,19.34
2023-04-08T15:29:23.987Z,18.92
2023-04-08T15:31:50.408Z,18.47
2023-04-08T15:34:16.917Z,18.49
2023-04-08T15:36:43.392Z,18.38
2023-04-08T15:39:09.916Z,18.37
2023-04-08T15:41:36.487Z,18.28
2023-04-08T15:44:02.961Z,18.06
2023-04-08T15:46:29.501Z,17.90
2023-04-08T15:48:56.052Z,17.75
2023-04-08T15:51:22.853Z,17.70
2023-04-08T15:53:51.472Z,17.45
2023-04-08T15:56:18.347Z,17.35
2023-04-08T15:58:46.037Z,17.06
2023-04-08T16:01:13.308Z,16.95
2023-04-08T16:03:39.972Z,16.98
2023-04-08T16:06:07.272Z,16.86
2023-04-08T16:08:34.798Z,16.53
2023-04-08T16:11:02.823Z,16.58
2023-04-08T16:13:30.247Z,16.54
2023-04-08T16:16:03.192Z,16.46
2023-04-08T16:18:30.310Z,16.14
2023-04-08T16:20:57.178Z,16.07
2023-04-08T16:23:23.975Z,16.14
2023-04-08T16:25:50.545Z,16.20
2023-04-08T16:28:18.063Z,16.04
2023-04-08T16:30:44.629Z,15.94
2023-04-08T16:33:11.248Z,15.84
2023-04-08T16:35:37.759Z,15.92
2023-04-08T16:38:04.567Z,16.00
2023-04-08T16:40:33.111Z,16.19
2023-04-08T16:43:02.492Z,16.32
2023-04-08T16:45:30.037Z,16.37
2023-04-08T16:47:57.140Z,16.35
2023-04-08T16:50:23.752Z,16.26
2023-04-08T16:52:50.500Z,16.30
2023-04-08T16:55:17.566Z,16.30
2023-04-08T16:57:44.073Z,16.18
2023-04-08T17:00:11.149Z,16.05
2023-04-08T17:02:37.723Z,16.13
2023-04-08T17:05:04.697Z,16.00
2023-04-08T17:07:31.197Z,15.90
2023-04-08T17:09:57.775Z,16.09
2023-04-08T17:12:24.484Z,16.09
2023-04-08T17:14:51.170Z,16.09
2023-04-08T17:17:17.580Z,16.06
2023-04-08T17:19:44.212Z,16.04
2023-04-08T17:22:10.778Z,16.01
2023-04-08T17:24:37.197Z,15.89
2023-04-08T17:27:03.745Z,15.70
2023-04-08T17:29:30.089Z,15.56
2023-04-08T17:31:56.687Z,15.52
2023-04-08T17:34:24.547Z,15.42
2023-04-08T17:36:51.439Z,15.36
2023-04-08T17:39:18.419Z,15.22
2023-04-08T17:41:45.952Z,14.94
2023-04-08T17:44:12.532Z,14.78
2023-04-08T17:46:39.009Z,14.56
2023-04-08T17:49:05.592Z,14.41
2023-04-08T17:51:31.988Z,14.17
2023-04-08T17:53:58.895Z,14.02
2023-04-08T17:56:27.114Z,13.92
2023-04-08T17:58:53.675Z,13.89
2023-04-08T18:01:22.278Z,13.82
2023-04-08T18:03:50.880Z,13.73
2023-04-08T18:06:18.035Z,13.71
2023-04-08T18:08:45.366Z,13.67
2023-04-08T18:11:12.160Z,13.56
2023-04-08T18:13:38.591Z,13.54
2023-04-08T18:16:05.298Z,13.49
2023-04-08T18:18:31.797Z,13.34
2023-04-08T18:20:58.325Z,13.23
2023-04-08T18:23:24.670Z,13.13
2023-04-08T18:25:51.155Z,13.10
2023-04-08T18:28:17.649Z,13.05
2023-04-08T18:30:44.086Z,13.03
2023-04-08T18:33:10.461Z,13.01
2023-04-08T18:35:36.997Z,13.11
2023-04-08T18:38:03.516Z,13.01
2023-04-08T18:40:31.248Z,13.02
2023-04-08T18:43:01.865Z,13.06
2023-04-08T18:45:29.300Z,13.05
2023-04-08T18:47:56.271Z,12.94
2023-04-08T18:50:23.455Z,12.88
2023-04-08T18:52:49.977Z,12.91
2023-04-08T18:55:16.732Z,12.85
2023-04-08T18:57:43.185Z,12.87
2023-04-08T19:00:09.703Z,12.80
2023-04-08T19:02:36.149Z,12.83
2023-04-08T19:05:02.608Z,12.80
2023-04-08T19:07:29.041Z,12.80
2023-04-08T19:09:58.591Z,12.80
2023-04-08T19:12:26.562Z,12.81
2023-04-08T19:14:53.677Z,12.77
2023-04-08T19:17:20.434Z,12.75
2023-04-08T19:19:46.836Z,12.68
2023-04-08T19:22:13.232Z,12.60
2023-04-08T19:24:39.684Z,12.52
2023-04-08T19:27:06.188Z,12.43
2023-04-08T19:29:35.424Z,12.34
2023-04-08T19:32:03.118Z,12.26
2023-04-08T19:34:30.049Z,12.21
2023-04-08T19:36:56.504Z,12.12
2023-04-08T19:39:25.234Z,12.03
2023-04-08T19:41:53.199Z,11.92
2023-04-08T19:44:19.696Z,11.83
2023-04-08T19:46:46.293Z,11.72
2023-04-08T19:49:12.794Z,11.62
2023-04-08T19:51:39.258Z,11.47
2023-04-08T19:54:05.590Z,11.36
2023-04-08T19:56:33.963Z,11.32
2023-04-08T19:59:01.794Z,11.28
2023-04-08T20:01:28.654Z,11.25
2023-04-08T20:03:55.352Z,11.12
2023-04-08T20:06:23.007Z,10.97
2023-04-08T20:08:51.843Z,10.88
2023-04-08T20:11:18.787Z,10.83
2023-04-08T20:13:46.838Z,10.71
2023-04-08T20:16:13.593Z,10.66
2023-04-08T20:18:40.246Z,10.60
2023-04-08T20:21:08.081Z,10.55
2023-04-08T20:23:34.624Z,10.50
2023-04-08T20:26:01.421Z,10.41
2023-04-08T20:28:27.822Z,10.34
2023-04-08T20:30:54.480Z,10.25
2023-04-08T20:33:21.107Z,10.20
2023-04-08T20:35:50.295Z,10.18
2023-04-08T20:38:16.800Z,10.13
2023-04-08T20:40:44.047Z,10.08
2023-04-08T20:43:10.715Z,9.97
2023-04-08T20:45:38.000Z,9.91
2023-04-08T20:48:05.707Z,9.85
2023-04-08T20:50:32.922Z,9.83
2023-04-08T20:52:59.632Z,9.79
2023-04-08T20:55:26.124Z,9.75
2023-04-08T20:57:52.545Z,9.67
2023-04-08T21:00:19.171Z,9.62
2023-04-08T21:02:45.758Z,9.59
2023-04-08T21:05:12.398Z,9.56
2023-04-08T21:07:44.099Z,9.52
2023-04-08T21:10:11.779Z,9.48
2023-04-08T21:12:38.307Z,9.46
2023-04-08T21:15:05.273Z,9.43
2023-04-08T21:17:31.877Z,9.40
2023-04-08T21:19:58.406Z,9.35
2023-04-08T21:22:24.741Z,9.32
2023-04-08T21:24:51.109Z,9.30
2023-04-08T21:27:18.014Z,9.27
2023-04-08T21:29:44.365Z,9.22
2023-04-08T21:32:10.890Z,9.16
2023-04-08T21:34:37.440Z,9.10
2023-04-08T21:37:03.962Z,9.07
2023-04-08T21:39:30.378Z,9.04
2023-04-08T21:41:57.442Z,9.01
2023-04-08T21:44:23.992Z,8.99
2023-04-08T21:46:50.603Z,8.98
2023-04-08T21:49:17.133Z,8.95
2023-04-08T21:51:43.535Z,8.94
2023-04-08T21:54:10.172Z,8.92
2023-04-08T21:56:36.536Z,8.88
2023-04-08T21:59:03.529Z,8.86
2023-04-08T22:01:30.306Z,8.84
2023-04-08T22:03:56.970Z,8.82
2023-04-08T22:06:32.149Z,8.77
2023-04-08T22:08:59.431Z,8.78
2023-04-08T22:11:26.001Z,8.82
2023-04-08T22:13:52.467Z,8.87
2023-04-08T22:16:18.831Z,8.91
2023-04-08T22:18:45.465Z,8.92
2023-04-08T22:21:11.978Z,8.96
2023-04-08T22:23:38.946Z,8.99
2023-04-08T22:26:05.478Z,9.01
2023-04-08T22:28:34.151Z,9.01
2023-04-08T22:31:01.107Z,9.02
2023-04-08T22:33:30.243Z,9.05
2023-04-08T22:35:57.495Z,9.06
2023-04-08T22:38:24.121Z,9.04
2023-04-08T22:40:50.582Z,9.04
2023-04-08T22:43:16.953Z,9.04
2023-04-08T22:45:43.374Z,9.06
2023-04-08T22:48:09.820Z,9.04
2023-04-08T22:50:36.713Z,9.05
2023-04-08T22:53:03.741Z,9.05
2023-04-08T22:55:30.995Z,9.09
2023-04-08T22:57:57.618Z,9.07
2023-04-08T23:00:24.162Z,9.09
2023-04-08T23:02:50.763Z,9.09
2023-04-08T23:05:17.460Z,9.09
2023-04-08T23:07:44.053Z,9.11
2023-04-08T23:10:10.890Z,9.10
2023-04-08T23:12:37.313Z,9.10
2023-04-08T23:15:04.428Z,9.12
2023-04-08T23:17:30.827Z,9.14
2023-04-08T23:19:57.214Z,9.14
2023-04-08T23:22:23.599Z,9.17
2023-04-08T23:24:50.533Z,9.15
2023-04-08T23:27:16.936Z,9.13
2023-04-08T23:29:43.364Z,9.14
2023-04-08T23:32:09.878Z,9.13
2023-04-08T23:34:37.176Z,9.13
2023-04-08T23:37:04.394Z,9.11
2023-04-08T23:39:32.011Z,9.10
2023-04-08T23:41:58.562Z,9.13
2023-04-08T23:44:25.256Z,9.14
2023-04-08T23:46:51.777Z,9.14
2023-04-08T23:49:18.232Z,9.16
2023-04-08T23:51:44.724Z,9.14
2023-04-08T23:54:11.239Z,9.14
2023-04-08T23:56:39.970Z,9.17
2023-04-08T23:59:06.363Z,9.16
